Gallup, NM

11:46 PM MDT en Mayo 22, 2015 (GMT -0600)
Gallup Municipal | | Change Station
CLOSE
Current Station
Aeropuerto
Location: Gallup,
Altura: 6470 ft
Estaciones meteorológicas cercanas

Alt 6470 ft 35.51 °N, 108.79 °W | Updated 53 minutes ago

Parcialmente nublado
Parcialmente nublado
53 ° F
Sensación térmica 53 ° F
N
15
Viento Variable Viento desde OSO

Hoy
Alta -- | Baja -- ° F
--% Posibilidad de precipitaciones
Ayer
Alta -- | Baja -- ° F
Precip. -- pul
6:05 AM 8:18 PM
Creciente, 27% visible
Presión 29.74 pul
Visibilidad 10.0 Millas
Nubes Baja 12000 ft
Punto de rocío 23 ° F
Humedad 31%
Precipitaciones 0.00 pul
Espesor de la nieve No disponible.
UV 0 de una escala de 12
Polen 6.00 de una escala de 12
Calidad del aire No disponible.
Flu Activity Local Activity
METAR KGUP 230453Z AUTO 25013KT 10SM FEW120 12/M05 A3005 RMK AO2 SLP069 T01171050

More Conditions Fewer Conditions

Presión 29.74 pul
Visibilidad 10.0 Millas
Nubes Baja 12000 ft
Punto de rocío 23 ° F
Humedad 31%
Precipitaciones 0.00 pul
Espesor de la nieve No disponible.
UV 0 de una escala de 12
Polen 6.00 de una escala de 12
Calidad del aire No disponible.
Flu Activity Local Activity
METAR KGUP 230453Z AUTO 25013KT 10SM FEW120 12/M05 A3005 RMK AO2 SLP069 T01171050

More Conditions Fewer Conditions

10-Day Weather Forecast

Almanac

Astronomía

May. 22, 2015 Salida Puesta
Hora real
Crepúsculo civil
Crepúsculo náutico
Crepúsculo astronómico
Luna
Horas de luz
Horas de luz
Tomorrow will be .
, % of the Moon is Illuminated

Extremos de hoy

Máximos del estado Bajos del estado

Community

WunderPhotos

Upload Photos

1,823,393 ¡fotos cargadas!

WunderBlogs® & News

Nearby

Calidad del aire

  Calidad del aire Índice AQ Contaminante
Not available.

Grosos de nieve

Estación Profundido Altura

Actividad de terremotos

Ciudad Distance Mag. Tiempo y dato
Magnitud mínima muestra es 2,5.

Temperaturas de aguas costeras

Lugar Temperatura

Stations

Estaciones meteorológicas cercanas

Ubicación de la estación Temp. Vientos helados Punto de rocío Humedad Viento Precip. Alt Actualizado Tipo